sensor_id;sensor_type;location;lat;lon;timestamp;pressure;altitude;pressure_sealevel;temperature;humidity
6942;BME280;3510;43.200;27.920;2023-01-28T00:01:15;100234.31;;;9.10;55.95
6942;BME280;3510;43.200;27.920;2023-01-28T00:03:42;100193.91;;;9.17;56.47
6942;BME280;3510;43.200;27.920;2023-01-28T00:06:13;100235.19;;;9.20;56.55
6942;BME280;3510;43.200;27.920;2023-01-28T00:08:41;100228.19;;;9.06;56.25
6942;BME280;3510;43.200;27.920;2023-01-28T00:11:11;100227.78;;;9.12;56.33
6942;BME280;3510;43.200;27.920;2023-01-28T00:13:38;100222.13;;;9.25;56.07
6942;BME280;3510;43.200;27.920;2023-01-28T00:16:07;100197.31;;;8.97;56.07
6942;BME280;3510;43.200;27.920;2023-01-28T00:18:34;100217.38;;;9.07;56.02
6942;BME280;3510;43.200;27.920;2023-01-28T00:27:59;100234.31;;;9.20;56.02
6942;BME280;3510;43.200;27.920;2023-01-28T00:30:26;100248.50;;;9.62;55.48
6942;BME280;3510;43.200;27.920;2023-01-28T00:33:07;100227.50;;;9.19;56.63
6942;BME280;3510;43.200;27.920;2023-01-28T00:35:34;100234.75;;;9.36;56.82
6942;BME280;3510;43.200;27.920;2023-01-28T00:38:01;100251.38;;;9.04;57.26
6942;BME280;3510;43.200;27.920;2023-01-28T00:40:28;100258.41;;;9.18;56.95
6942;BME280;3510;43.200;27.920;2023-01-28T00:42:55;100251.81;;;9.40;56.66
6942;BME280;3510;43.200;27.920;2023-01-28T00:48:37;100253.63;;;9.31;56.87
6942;BME280;3510;43.200;27.920;2023-01-28T00:51:05;100198.47;;;8.90;57.28
6942;BME280;3510;43.200;27.920;2023-01-28T00:53:33;100261.41;;;9.14;57.60
6942;BME280;3510;43.200;27.920;2023-01-28T00:56:01;100237.25;;;8.94;58.14
6942;BME280;3510;43.200;27.920;2023-01-28T00:58:42;100232.19;;;9.04;56.97
6942;BME280;3510;43.200;27.920;2023-01-28T01:01:11;100266.81;;;9.08;57.10
6942;BME280;3510;43.200;27.920;2023-01-28T01:03:40;100270.28;;;9.41;57.46
6942;BME280;3510;43.200;27.920;2023-01-28T01:06:08;100290.91;;;9.06;57.15
6942;BME280;3510;43.200;27.920;2023-01-28T01:08:36;100207.28;;;8.75;57.56
6942;BME280;3510;43.200;27.920;2023-01-28T01:11:06;100275.72;;;8.74;58.68
6942;BME280;3510;43.200;27.920;2023-01-28T01:13:50;100274.88;;;8.94;58.35
6942;BME280;3510;43.200;27.920;2023-01-28T01:16:17;100252.75;;;8.49;58.73
6942;BME280;3510;43.200;27.920;2023-01-28T01:24:53;100250.66;;;8.74;58.03
6942;BME280;3510;43.200;27.920;2023-01-28T01:27:34;100284.50;;;8.59;58.04
6942;BME280;3510;43.200;27.920;2023-01-28T01:30:04;100255.78;;;9.06;56.91
6942;BME280;3510;43.200;27.920;2023-01-28T01:32:31;100282.88;;;9.20;57.11
6942;BME280;3510;43.200;27.920;2023-01-28T01:35:00;100295.53;;;8.71;57.53
6942;BME280;3510;43.200;27.920;2023-01-28T01:37:27;100277.72;;;8.78;57.73
6942;BME280;3510;43.200;27.920;2023-01-28T01:40:11;100305.59;;;8.91;57.40
6942;BME280;3510;43.200;27.920;2023-01-28T01:42:38;100319.59;;;8.59;58.33
6942;BME280;3510;43.200;27.920;2023-01-28T01:45:11;100313.34;;;8.74;57.53
6942;BME280;3510;43.200;27.920;2023-01-28T01:47:56;100305.94;;;8.16;59.17
6942;BME280;3510;43.200;27.920;2023-01-28T01:50:29;100305.25;;;7.98;59.61
6942;BME280;3510;43.200;27.920;2023-01-28T01:53:13;100322.47;;;8.14;59.11
6942;BME280;3510;43.200;27.920;2023-01-28T01:58:55;100322.34;;;8.52;58.15
6942;BME280;3510;43.200;27.920;2023-01-28T02:01:26;100330.31;;;8.08;58.76
6942;BME280;3510;43.200;27.920;2023-01-28T02:04:11;100339.88;;;8.41;57.67
6942;BME280;3510;43.200;27.920;2023-01-28T02:06:41;100345.53;;;8.39;57.92
6942;BME280;3510;43.200;27.920;2023-01-28T02:09:21;100342.91;;;7.70;58.98
6942;BME280;3510;43.200;27.920;2023-01-28T02:14:36;100339.66;;;8.59;56.37
6942;BME280;3510;43.200;27.920;2023-01-28T02:17:19;100348.78;;;9.28;54.57
6942;BME280;3510;43.200;27.920;2023-01-28T02:20:01;100355.75;;;8.81;55.54
6942;BME280;3510;43.200;27.920;2023-01-28T02:23:06;100360.25;;;9.67;53.22
6942;BME280;3510;43.200;27.920;2023-01-28T02:28:51;100365.94;;;8.83;54.85
6942;BME280;3510;43.200;27.920;2023-01-28T02:31:39;100379.91;;;8.50;54.99
6942;BME280;3510;43.200;27.920;2023-01-28T02:34:32;100353.88;;;8.79;54.24
6942;BME280;3510;43.200;27.920;2023-01-28T02:37:05;100361.50;;;8.31;54.94
6942;BME280;3510;43.200;27.920;2023-01-28T02:39:48;100367.22;;;8.48;54.34
6942;BME280;3510;43.200;27.920;2023-01-28T02:42:33;100336.69;;;8.93;53.39
6942;BME280;3510;43.200;27.920;2023-01-28T02:48:12;100385.53;;;9.38;52.52
6942;BME280;3510;43.200;27.920;2023-01-28T02:51:01;100377.72;;;8.84;54.11
6942;BME280;3510;43.200;27.920;2023-01-28T02:53:50;100346.22;;;8.77;53.99
6942;BME280;3510;43.200;27.920;2023-01-28T02:56:39;100395.97;;;8.62;54.84
6942;BME280;3510;43.200;27.920;2023-01-28T02:59:27;100392.75;;;8.73;54.92
6942;BME280;3510;43.200;27.920;2023-01-28T03:02:07;100400.19;;;8.24;55.14
6942;BME280;3510;43.200;27.920;2023-01-28T03:04:42;100389.66;;;8.47;54.76
6942;BME280;3510;43.200;27.920;2023-01-28T03:07:14;100369.91;;;8.31;55.73
6942;BME280;3510;43.200;27.920;2023-01-28T03:09:45;100394.25;;;8.13;55.62
6942;BME280;3510;43.200;27.920;2023-01-28T03:12:18;100347.22;;;7.82;55.04
6942;BME280;3510;43.200;27.920;2023-01-28T03:15:07;100421.69;;;7.93;55.81
6942;BME280;3510;43.200;27.920;2023-01-28T03:17:57;100402.53;;;7.93;55.34
6942;BME280;3510;43.200;27.920;2023-01-28T03:20:49;100395.25;;;7.86;56.04
6942;BME280;3510;43.200;27.920;2023-01-28T03:23:37;100406.94;;;7.96;54.74
6942;BME280;3510;43.200;27.920;2023-01-28T03:26:24;100407.28;;;7.25;56.33
6942;BME280;3510;43.200;27.920;2023-01-28T03:29:13;100406.00;;;7.20;56.46
6942;BME280;3510;43.200;27.920;2023-01-28T03:31:58;100409.84;;;7.63;55.91
6942;BME280;3510;43.200;27.920;2023-01-28T03:34:44;100394.19;;;7.27;55.80
6942;BME280;3510;43.200;27.920;2023-01-28T03:37:31;100421.28;;;7.88;54.01
6942;BME280;3510;43.200;27.920;2023-01-28T03:40:03;100409.34;;;7.29;55.60
6942;BME280;3510;43.200;27.920;2023-01-28T03:42:44;100383.19;;;6.89;56.66
6942;BME280;3510;43.200;27.920;2023-01-28T03:45:25;100376.84;;;6.93;56.00
6942;BME280;3510;43.200;27.920;2023-01-28T03:48:06;100415.03;;;7.37;55.54
6942;BME280;3510;43.200;27.920;2023-01-28T03:50:47;100396.91;;;7.39;55.13
6942;BME280;3510;43.200;27.920;2023-01-28T03:56:26;100432.09;;;7.60;54.45
6942;BME280;3510;43.200;27.920;2023-01-28T03:59:02;100414.31;;;7.57;55.24
6942;BME280;3510;43.200;27.920;2023-01-28T04:01:29;100362.72;;;7.21;54.77
6942;BME280;3510;43.200;27.920;2023-01-28T04:04:09;100377.00;;;7.22;54.45
6942;BME280;3510;43.200;27.920;2023-01-28T04:06:51;100440.16;;;7.66;53.73
6942;BME280;3510;43.200;27.920;2023-01-28T04:09:19;100452.78;;;7.48;54.24
6942;BME280;3510;43.200;27.920;2023-01-28T04:18:25;100444.63;;;7.79;53.14
6942;BME280;3510;43.200;27.920;2023-01-28T04:20:52;100450.72;;;7.25;53.69
6942;BME280;3510;43.200;27.920;2023-01-28T04:23:19;100446.50;;;7.43;53.23
6942;BME280;3510;43.200;27.920;2023-01-28T04:25:48;100446.75;;;6.91;54.32
6942;BME280;3510;43.200;27.920;2023-01-28T04:28:16;100475.63;;;6.79;54.38
6942;BME280;3510;43.200;27.920;2023-01-28T04:30:43;100432.50;;;6.82;54.32
6942;BME280;3510;43.200;27.920;2023-01-28T04:33:10;100457.34;;;6.97;53.45
6942;BME280;3510;43.200;27.920;2023-01-28T04:35:39;100462.34;;;7.25;53.83
6942;BME280;3510;43.200;27.920;2023-01-28T04:38:06;100446.84;;;6.65;53.02
6942;BME280;3510;43.200;27.920;2023-01-28T04:40:33;100451.41;;;7.33;52.55
6942;BME280;3510;43.200;27.920;2023-01-28T04:43:00;100444.53;;;6.94;53.59
6942;BME280;3510;43.200;27.920;2023-01-28T04:45:27;100405.25;;;6.93;53.09
6942;BME280;3510;43.200;27.920;2023-01-28T04:47:55;100453.81;;;7.50;52.17
6942;BME280;3510;43.200;27.920;2023-01-28T04:50:22;100368.00;;;6.69;52.97
6942;BME280;3510;43.200;27.920;2023-01-28T04:52:51;100463.59;;;7.85;51.81
6942;BME280;3510;43.200;27.920;2023-01-28T04:55:19;100381.50;;;7.54;51.62
6942;BME280;3510;43.200;27.920;2023-01-28T04:57:46;100475.19;;;7.19;53.27
6942;BME280;3510;43.200;27.920;2023-01-28T05:00:14;100439.66;;;6.96;53.06
6942;BME280;3510;43.200;27.920;2023-01-28T05:02:41;100473.06;;;7.33;52.89
6942;BME280;3510;43.200;27.920;2023-01-28T05:05:09;100451.50;;;7.43;52.36
6942;BME280;3510;43.200;27.920;2023-01-28T05:07:37;100420.16;;;7.19;52.62
6942;BME280;3510;43.200;27.920;2023-01-28T05:10:06;100501.81;;;7.27;52.96
6942;BME280;3510;43.200;27.920;2023-01-28T05:12:33;100510.97;;;7.73;51.71
6942;BME280;3510;43.200;27.920;2023-01-28T05:15:00;100481.06;;;7.20;52.40
6942;BME280;3510;43.200;27.920;2023-01-28T05:17:28;100506.56;;;7.43;51.84
6942;BME280;3510;43.200;27.920;2023-01-28T05:19:55;100507.28;;;6.44;53.83
6942;BME280;3510;43.200;27.920;2023-01-28T05:22:23;100527.69;;;6.83;53.58
6942;BME280;3510;43.200;27.920;2023-01-28T05:24:49;100433.03;;;6.51;53.47
6942;BME280;3510;43.200;27.920;2023-01-28T05:27:18;100440.00;;;6.90;51.69
6942;BME280;3510;43.200;27.920;2023-01-28T05:29:45;100472.53;;;8.11;49.14
6942;BME280;3510;43.200;27.920;2023-01-28T05:32:12;100489.41;;;8.03;50.13
6942;BME280;3510;43.200;27.920;2023-01-28T05:34:39;100485.63;;;7.15;51.32
6942;BME280;3510;43.200;27.920;2023-01-28T05:37:06;100523.94;;;7.97;50.66
6942;BME280;3510;43.200;27.920;2023-01-28T05:39:33;100484.63;;;7.13;51.97
6942;BME280;3510;43.200;27.920;2023-01-28T05:42:00;100537.78;;;7.47;51.77
6942;BME280;3510;43.200;27.920;2023-01-28T05:44:29;100533.53;;;7.92;50.52
6942;BME280;3510;43.200;27.920;2023-01-28T05:46:56;100526.91;;;7.38;50.96
6942;BME280;3510;43.200;27.920;2023-01-28T05:49:23;100540.41;;;8.04;49.89
6942;BME280;3510;43.200;27.920;2023-01-28T05:51:51;100541.66;;;8.55;49.08
6942;BME280;3510;43.200;27.920;2023-01-28T05:54:18;100568.81;;;7.85;49.87
6942;BME280;3510;43.200;27.920;2023-01-28T05:56:45;100549.41;;;7.46;51.25
6942;BME280;3510;43.200;27.920;2023-01-28T05:59:13;100522.81;;;7.66;50.50
6942;BME280;3510;43.200;27.920;2023-01-28T06:01:42;100558.47;;;7.27;51.68
6942;BME280;3510;43.200;27.920;2023-01-28T06:04:09;100573.03;;;7.95;50.76
6942;BME280;3510;43.200;27.920;2023-01-28T06:06:37;100574.81;;;7.68;51.23
6942;BME280;3510;43.200;27.920;2023-01-28T06:09:05;100489.97;;;7.63;50.36
6942;BME280;3510;43.200;27.920;2023-01-28T06:11:33;100575.78;;;8.25;49.09
6942;BME280;3510;43.200;27.920;2023-01-28T06:14:00;100545.81;;;7.62;50.49
6942;BME280;3510;43.200;27.920;2023-01-28T06:16:28;100598.16;;;7.41;51.21
6942;BME280;3510;43.200;27.920;2023-01-28T06:18:56;100551.06;;;7.92;50.48
6942;BME280;3510;43.200;27.920;2023-01-28T06:21:23;100589.38;;;8.46;48.45
6942;BME280;3510;43.200;27.920;2023-01-28T06:23:50;100609.09;;;7.97;49.53
6942;BME280;3510;43.200;27.920;2023-01-28T06:26:18;100590.34;;;8.38;48.67
6942;BME280;3510;43.200;27.920;2023-01-28T06:28:48;100595.03;;;8.16;49.36
6942;BME280;3510;43.200;27.920;2023-01-28T06:31:15;100567.97;;;9.27;46.49
6942;BME280;3510;43.200;27.920;2023-01-28T06:33:43;100582.84;;;8.86;47.32
6942;BME280;3510;43.200;27.920;2023-01-28T06:36:12;100570.41;;;9.17;46.28
6942;BME280;3510;43.200;27.920;2023-01-28T06:38:39;100548.00;;;9.00;46.48
6942;BME280;3510;43.200;27.920;2023-01-28T06:41:07;100600.69;;;8.52;48.21
6942;BME280;3510;43.200;27.920;2023-01-28T06:43:34;100598.41;;;8.92;47.13
6942;BME280;3510;43.200;27.920;2023-01-28T06:46:01;100604.41;;;9.13;46.88
6942;BME280;3510;43.200;27.920;2023-01-28T06:48:28;100625.13;;;8.35;49.12
6942;BME280;3510;43.200;27.920;2023-01-28T06:50:55;100576.75;;;8.74;47.66
6942;BME280;3510;43.200;27.920;2023-01-28T06:53:24;100580.81;;;8.63;48.41
6942;BME280;3510;43.200;27.920;2023-01-28T06:55:51;100573.41;;;8.27;48.25
6942;BME280;3510;43.200;27.920;2023-01-28T06:58:18;100597.84;;;8.57;47.70
6942;BME280;3510;43.200;27.920;2023-01-28T07:00:46;100615.94;;;8.17;48.94
6942;BME280;3510;43.200;27.920;2023-01-28T07:03:13;100621.31;;;8.58;48.51
6942;BME280;3510;43.200;27.920;2023-01-28T07:05:40;100619.88;;;8.70;48.02
6942;BME280;3510;43.200;27.920;2023-01-28T07:08:07;100564.75;;;7.96;48.11
6942;BME280;3510;43.200;27.920;2023-01-28T07:10:35;100633.63;;;8.46;48.67
6942;BME280;3510;43.200;27.920;2023-01-28T07:13:02;100605.78;;;8.34;48.38
6942;BME280;3510;43.200;27.920;2023-01-28T07:15:29;100640.28;;;8.45;48.28
6942;BME280;3510;43.200;27.920;2023-01-28T07:17:57;100629.28;;;8.26;48.93
6942;BME280;3510;43.200;27.920;2023-01-28T07:20:24;100635.19;;;8.73;48.05
6942;BME280;3510;43.200;27.920;2023-01-28T07:22:51;100642.97;;;8.38;49.26
6942;BME280;3510;43.200;27.920;2023-01-28T07:25:18;100631.19;;;8.94;47.57
6942;BME280;3510;43.200;27.920;2023-01-28T07:27:49;100646.78;;;9.29;46.97
6942;BME280;3510;43.200;27.920;2023-01-28T07:30:18;100626.25;;;8.66;47.76
6942;BME280;3510;43.200;27.920;2023-01-28T07:32:46;100649.38;;;8.54;47.61
6942;BME280;3510;43.200;27.920;2023-01-28T07:35:13;100622.72;;;8.83;47.21
6942;BME280;3510;43.200;27.920;2023-01-28T07:37:50;100552.34;;;8.63;46.23
6942;BME280;3510;43.200;27.920;2023-01-28T07:40:17;100609.09;;;8.90;46.25
6942;BME280;3510;43.200;27.920;2023-01-28T07:42:44;100652.41;;;9.56;45.57
6942;BME280;3510;43.200;27.920;2023-01-28T07:45:13;100600.56;;;9.66;44.97
6942;BME280;3510;43.200;27.920;2023-01-28T07:47:40;100649.69;;;9.34;46.05
6942;BME280;3510;43.200;27.920;2023-01-28T07:50:09;100644.19;;;9.77;45.25
6942;BME280;3510;43.200;27.920;2023-01-28T07:52:37;100654.50;;;9.80;45.15
6942;BME280;3510;43.200;27.920;2023-01-28T07:55:09;100661.13;;;9.40;45.58
6942;BME280;3510;43.200;27.920;2023-01-28T07:57:37;100650.41;;;10.01;44.54
6942;BME280;3510;43.200;27.920;2023-01-28T08:00:15;100672.31;;;9.15;45.22
6942;BME280;3510;43.200;27.920;2023-01-28T08:02:43;100580.56;;;8.60;46.40
6942;BME280;3510;43.200;27.920;2023-01-28T08:05:14;100655.38;;;9.12;46.40
6942;BME280;3510;43.200;27.920;2023-01-28T08:07:41;100616.16;;;9.33;45.40
6942;BME280;3510;43.200;27.920;2023-01-28T08:10:09;100624.78;;;9.56;45.43
6942;BME280;3510;43.200;27.920;2023-01-28T08:12:36;100674.41;;;9.29;45.87
6942;BME280;3510;43.200;27.920;2023-01-28T08:15:05;100604.94;;;9.19;44.11
6942;BME280;3510;43.200;27.920;2023-01-28T08:17:33;100681.84;;;9.67;45.17
6942;BME280;3510;43.200;27.920;2023-01-28T08:20:00;100681.22;;;8.92;46.10
6942;BME280;3510;43.200;27.920;2023-01-28T08:22:27;100593.50;;;8.65;46.08
6942;BME280;3510;43.200;27.920;2023-01-28T08:24:54;100694.91;;;8.77;47.02
6942;BME280;3510;43.200;27.920;2023-01-28T08:27:22;100640.00;;;8.42;46.87
6942;BME280;3510;43.200;27.920;2023-01-28T08:29:49;100711.41;;;8.84;46.64
6942;BME280;3510;43.200;27.920;2023-01-28T08:32:16;100675.91;;;8.52;47.29
6942;BME280;3510;43.200;27.920;2023-01-28T08:34:45;100713.91;;;8.37;47.80
6942;BME280;3510;43.200;27.920;2023-01-28T08:37:12;100700.41;;;8.73;45.93
6942;BME280;3510;43.200;27.920;2023-01-28T08:39:39;100719.69;;;9.02;46.07
6942;BME280;3510;43.200;27.920;2023-01-28T08:42:07;100708.91;;;9.51;44.93
6942;BME280;3510;43.200;27.920;2023-01-28T08:44:34;100649.56;;;8.84;45.40
6942;BME280;3510;43.200;27.920;2023-01-28T08:47:05;100685.91;;;9.17;44.60
6942;BME280;3510;43.200;27.920;2023-01-28T08:49:32;100638.28;;;8.89;44.80
6942;BME280;3510;43.200;27.920;2023-01-28T08:52:00;100672.81;;;9.11;44.80
6942;BME280;3510;43.200;27.920;2023-01-28T08:54:27;100749.81;;;9.02;45.79
6942;BME280;3510;43.200;27.920;2023-01-28T08:56:55;100711.19;;;8.53;46.24
6942;BME280;3510;43.200;27.920;2023-01-28T08:59:22;100709.16;;;9.25;44.24
6942;BME280;3510;43.200;27.920;2023-01-28T09:01:49;100707.81;;;8.90;45.24
6942;BME280;3510;43.200;27.920;2023-01-28T09:04:17;100713.31;;;8.31;45.94
6942;BME280;3510;43.200;27.920;2023-01-28T09:06:44;100699.88;;;8.39;46.38
6942;BME280;3510;43.200;27.920;2023-01-28T09:09:13;100689.63;;;8.19;47.21
6942;BME280;3510;43.200;27.920;2023-01-28T09:11:40;100692.59;;;7.79;47.03
6942;BME280;3510;43.200;27.920;2023-01-28T09:14:07;100710.75;;;7.76;47.24
6942;BME280;3510;43.200;27.920;2023-01-28T09:16:34;100717.72;;;8.06;47.21
6942;BME280;3510;43.200;27.920;2023-01-28T09:19:02;100719.38;;;7.88;47.20
6942;BME280;3510;43.200;27.920;2023-01-28T09:21:28;100737.81;;;7.97;46.75
6942;BME280;3510;43.200;27.920;2023-01-28T09:23:56;100721.66;;;8.49;45.86
6942;BME280;3510;43.200;27.920;2023-01-28T09:26:24;100609.06;;;7.33;47.53
6942;BME280;3510;43.200;27.920;2023-01-28T09:28:51;100740.41;;;7.37;48.67
6942;BME280;3510;43.200;27.920;2023-01-28T09:31:18;100754.25;;;7.33;48.20
6942;BME280;3510;43.200;27.920;2023-01-28T09:33:47;100746.97;;;7.71;47.82
6942;BME280;3510;43.200;27.920;2023-01-28T09:36:19;100754.13;;;8.03;47.00
6942;BME280;3510;43.200;27.920;2023-01-28T09:39:00;100744.19;;;8.21;47.15
6942;BME280;3510;43.200;27.920;2023-01-28T09:41:49;100746.69;;;8.21;46.73
6942;BME280;3510;43.200;27.920;2023-01-28T09:44:46;100728.03;;;8.92;45.26
6942;BME280;3510;43.200;27.920;2023-01-28T09:47:25;100732.63;;;8.32;47.36
6942;BME280;3510;43.200;27.920;2023-01-28T09:49:58;100740.69;;;7.57;48.23
6942;BME280;3510;43.200;27.920;2023-01-28T09:52:29;100740.50;;;8.18;47.34
6942;BME280;3510;43.200;27.920;2023-01-28T09:55:18;100719.00;;;7.66;48.61
6942;BME280;3510;43.200;27.920;2023-01-28T10:04:46;100711.81;;;8.88;45.64
6942;BME280;3510;43.200;27.920;2023-01-28T10:07:28;100593.44;;;7.81;46.85
6942;BME280;3510;43.200;27.920;2023-01-28T10:10:12;100665.81;;;8.33;46.64
6942;BME280;3510;43.200;27.920;2023-01-28T10:13:11;100701.69;;;8.59;45.87
6942;BME280;3510;43.200;27.920;2023-01-28T10:15:49;100700.78;;;8.40;46.48
6942;BME280;3510;43.200;27.920;2023-01-28T10:18:28;100724.44;;;7.71;47.43
6942;BME280;3510;43.200;27.920;2023-01-28T10:21:04;100699.38;;;7.71;47.54
6942;BME280;3510;43.200;27.920;2023-01-28T10:23:40;100708.22;;;8.48;45.51
6942;BME280;3510;43.200;27.920;2023-01-28T10:26:21;100660.66;;;8.12;46.05
6942;BME280;3510;43.200;27.920;2023-01-28T10:28:53;100674.44;;;8.72;45.69
6942;BME280;3510;43.200;27.920;2023-01-28T10:31:22;100657.41;;;7.15;48.47
6942;BME280;3510;43.200;27.920;2023-01-28T10:33:51;100683.09;;;7.93;47.50
6942;BME280;3510;43.200;27.920;2023-01-28T10:36:19;100699.13;;;8.40;46.49
6942;BME280;3510;43.200;27.920;2023-01-28T10:38:48;100696.41;;;7.39;47.58
6942;BME280;3510;43.200;27.920;2023-01-28T10:41:19;100690.53;;;7.83;47.32
6942;BME280;3510;43.200;27.920;2023-01-28T10:43:48;100714.09;;;7.94;46.96
6942;BME280;3510;43.200;27.920;2023-01-28T10:46:18;100719.34;;;8.06;46.67
6942;BME280;3510;43.200;27.920;2023-01-28T10:48:54;100725.31;;;7.80;47.26
6942;BME280;3510;43.200;27.920;2023-01-28T10:51:32;100713.78;;;7.20;48.86
6942;BME280;3510;43.200;27.920;2023-01-28T10:53:59;100715.63;;;8.47;46.64
6942;BME280;3510;43.200;27.920;2023-01-28T10:56:29;100731.06;;;8.24;47.28
6942;BME280;3510;43.200;27.920;2023-01-28T10:58:59;100717.72;;;8.89;45.92
6942;BME280;3510;43.200;27.920;2023-01-28T11:01:41;100662.34;;;8.22;45.67
6942;BME280;3510;43.200;27.920;2023-01-28T11:04:17;100731.28;;;8.36;45.33
6942;BME280;3510;43.200;27.920;2023-01-28T11:06:53;100743.31;;;8.21;46.74
6942;BME280;3510;43.200;27.920;2023-01-28T11:09:23;100706.47;;;8.11;45.39
6942;BME280;3510;43.200;27.920;2023-01-28T11:11:50;100724.63;;;8.45;45.81
6942;BME280;3510;43.200;27.920;2023-01-28T11:14:23;100784.69;;;8.26;46.31
6942;BME280;3510;43.200;27.920;2023-01-28T11:16:51;100706.75;;;8.51;45.46
6942;BME280;3510;43.200;27.920;2023-01-28T11:19:20;100749.25;;;8.77;45.73
6942;BME280;3510;43.200;27.920;2023-01-28T11:21:53;100749.75;;;8.64;45.92
6942;BME280;3510;43.200;27.920;2023-01-28T11:24:22;100747.81;;;8.34;45.29
6942;BME280;3510;43.200;27.920;2023-01-28T11:26:53;100749.44;;;8.69;45.61
6942;BME280;3510;43.200;27.920;2023-01-28T11:29:23;100733.28;;;8.57;46.06
6942;BME280;3510;43.200;27.920;2023-01-28T11:31:52;100732.84;;;7.71;47.83
6942;BME280;3510;43.200;27.920;2023-01-28T11:34:19;100755.88;;;8.12;46.24
6942;BME280;3510;43.200;27.920;2023-01-28T11:36:52;100742.34;;;8.46;46.06
6942;BME280;3510;43.200;27.920;2023-01-28T11:39:21;100734.09;;;8.03;46.59
6942;BME280;3510;43.200;27.920;2023-01-28T11:41:51;100722.75;;;8.42;46.25
6942;BME280;3510;43.200;27.920;2023-01-28T11:44:21;100737.59;;;8.13;46.08
6942;BME280;3510;43.200;27.920;2023-01-28T11:47:10;100744.81;;;8.74;45.36
6942;BME280;3510;43.200;27.920;2023-01-28T11:50:01;100746.22;;;8.25;47.30
6942;BME280;3510;43.200;27.920;2023-01-28T11:52:42;100731.06;;;8.24;46.05
6942;BME280;3510;43.200;27.920;2023-01-28T11:55:33;100770.69;;;7.83;47.83
6942;BME280;3510;43.200;27.920;2023-01-28T11:58:16;100766.31;;;7.11;49.29
6942;BME280;3510;43.200;27.920;2023-01-28T12:00:53;100761.25;;;8.25;46.84
6942;BME280;3510;43.200;27.920;2023-01-28T12:03:35;100766.81;;;7.95;47.50
6942;BME280;3510;43.200;27.920;2023-01-28T12:06:21;100695.75;;;7.59;47.59
6942;BME280;3510;43.200;27.920;2023-01-28T12:08:58;100707.91;;;8.18;46.46
6942;BME280;3510;43.200;27.920;2023-01-28T12:11:39;100791.22;;;8.24;46.23
6942;BME280;3510;43.200;27.920;2023-01-28T12:14:34;100780.72;;;7.83;47.98
6942;BME280;3510;43.200;27.920;2023-01-28T12:17:15;100770.16;;;8.58;45.55
6942;BME280;3510;43.200;27.920;2023-01-28T12:19:57;100761.97;;;8.33;45.88
6942;BME280;3510;43.200;27.920;2023-01-28T12:23:06;100764.59;;;7.98;46.76
6942;BME280;3510;43.200;27.920;2023-01-28T12:26:10;100778.94;;;8.72;45.73
6942;BME280;3510;43.200;27.920;2023-01-28T12:28:51;100805.75;;;7.83;47.99
6942;BME280;3510;43.200;27.920;2023-01-28T12:31:50;100785.63;;;8.18;47.17
6942;BME280;3510;43.200;27.920;2023-01-28T12:34:48;100796.06;;;7.51;48.69
6942;BME280;3510;43.200;27.920;2023-01-28T12:37:26;100728.38;;;7.95;47.00
6942;BME280;3510;43.200;27.920;2023-01-28T12:40:09;100793.19;;;8.09;47.77
6942;BME280;3510;43.200;27.920;2023-01-28T12:42:42;100787.69;;;7.42;48.36
6942;BME280;3510;43.200;27.920;2023-01-28T12:45:14;100778.50;;;7.86;47.03
6942;BME280;3510;43.200;27.920;2023-01-28T12:47:49;100807.38;;;8.36;46.10
6942;BME280;3510;43.200;27.920;2023-01-28T12:50:20;100817.28;;;8.43;46.44
6942;BME280;3510;43.200;27.920;2023-01-28T12:52:50;100746.09;;;8.24;45.67
6942;BME280;3510;43.200;27.920;2023-01-28T12:55:25;100814.31;;;8.47;47.35
6942;BME280;3510;43.200;27.920;2023-01-28T12:58:02;100825.44;;;8.23;47.08
6942;BME280;3510;43.200;27.920;2023-01-28T13:00:33;100821.53;;;8.44;46.47
6942;BME280;3510;43.200;27.920;2023-01-28T13:03:10;100812.72;;;8.22;46.37
6942;BME280;3510;43.200;27.920;2023-01-28T13:05:45;100821.75;;;9.20;45.12
6942;BME280;3510;43.200;27.920;2023-01-28T13:08:16;100836.16;;;8.76;45.07
6942;BME280;3510;43.200;27.920;2023-01-28T13:10:47;100808.75;;;8.24;45.91
6942;BME280;3510;43.200;27.920;2023-01-28T13:15:51;100836.31;;;8.33;45.87
6942;BME280;3510;43.200;27.920;2023-01-28T13:18:34;100852.38;;;8.26;46.39
6942;BME280;3510;43.200;27.920;2023-01-28T13:21:14;100875.28;;;7.60;47.88
6942;BME280;3510;43.200;27.920;2023-01-28T13:23:43;100862.94;;;7.70;48.76
6942;BME280;3510;43.200;27.920;2023-01-28T13:26:27;100799.00;;;7.56;47.72
6942;BME280;3510;43.200;27.920;2023-01-28T13:29:08;100817.25;;;7.72;47.04
6942;BME280;3510;43.200;27.920;2023-01-28T13:31:39;100844.56;;;8.23;46.15
6942;BME280;3510;43.200;27.920;2023-01-28T13:34:09;100872.59;;;8.28;46.35
6942;BME280;3510;43.200;27.920;2023-01-28T13:36:52;100872.34;;;7.64;47.32
6942;BME280;3510;43.200;27.920;2023-01-28T13:39:21;100892.34;;;8.51;45.50
6942;BME280;3510;43.200;27.920;2023-01-28T13:41:51;100864.84;;;7.55;47.71
6942;BME280;3510;43.200;27.920;2023-01-28T13:44:25;100892.22;;;8.14;46.08
6942;BME280;3510;43.200;27.920;2023-01-28T13:46:55;100897.13;;;9.03;45.03
6942;BME280;3510;43.200;27.920;2023-01-28T13:49:29;100847.28;;;7.29;47.35
6942;BME280;3510;43.200;27.920;2023-01-28T13:52:04;100857.91;;;7.52;47.43
6942;BME280;3510;43.200;27.920;2023-01-28T13:54:35;100903.44;;;9.16;43.86
6942;BME280;3510;43.200;27.920;2023-01-28T13:57:21;100906.66;;;7.39;48.45
6942;BME280;3510;43.200;27.920;2023-01-28T14:00:04;100835.66;;;7.30;47.45
6942;BME280;3510;43.200;27.920;2023-01-28T14:02:50;100890.91;;;8.09;45.97
6942;BME280;3510;43.200;27.920;2023-01-28T14:05:59;100901.06;;;7.67;47.45
6942;BME280;3510;43.200;27.920;2023-01-28T14:08:51;100881.34;;;7.62;47.92
6942;BME280;3510;43.200;27.920;2023-01-28T14:11:32;100894.84;;;7.20;48.42
6942;BME280;3510;43.200;27.920;2023-01-28T14:14:33;100891.44;;;8.41;45.96
6942;BME280;3510;43.200;27.920;2023-01-28T14:17:10;100870.13;;;7.93;45.77
6942;BME280;3510;43.200;27.920;2023-01-28T14:19:47;100848.47;;;7.67;46.40
6942;BME280;3510;43.200;27.920;2023-01-28T14:22:17;100910.28;;;8.64;44.90
6942;BME280;3510;43.200;27.920;2023-01-28T14:24:46;100906.16;;;8.56;45.63
6942;BME280;3510;43.200;27.920;2023-01-28T14:27:17;100915.53;;;8.39;45.94
6942;BME280;3510;43.200;27.920;2023-01-28T14:29:56;100925.53;;;7.61;47.61